sensor_id;sensor_type;location;lat;lon;timestamp;P1;durP1;ratioP1;P2;durP2;ratioP2
14209;SDS011;7188;56.070;12.698;2023-05-29T00:00:32;18.87;;;3.40;;
14209;SDS011;7188;56.070;12.698;2023-05-29T00:02:58;13.73;;;3.40;;
14209;SDS011;7188;56.070;12.698;2023-05-29T00:05:24;15.83;;;3.27;;
14209;SDS011;7188;56.070;12.698;2023-05-29T00:07:49;16.67;;;3.23;;
14209;SDS011;7188;56.070;12.698;2023-05-29T00:10:15;13.20;;;3.47;;
14209;SDS011;7188;56.070;12.698;2023-05-29T00:12:42;9.80;;;2.30;;
14209;SDS011;7188;56.070;12.698;2023-05-29T00:15:08;13.93;;;3.33;;
14209;SDS011;7188;56.070;12.698;2023-05-29T00:17:37;16.10;;;3.17;;
14209;SDS011;7188;56.070;12.698;2023-05-29T00:20:05;15.33;;;3.60;;
14209;SDS011;7188;56.070;12.698;2023-05-29T00:22:35;20.37;;;4.03;;
14209;SDS011;7188;56.070;12.698;2023-05-29T00:25:03;14.43;;;3.10;;
14209;SDS011;7188;56.070;12.698;2023-05-29T00:27:30;17.67;;;3.83;;
14209;SDS011;7188;56.070;12.698;2023-05-29T00:29:57;16.87;;;2.67;;
14209;SDS011;7188;56.070;12.698;2023-05-29T00:32:23;17.00;;;2.97;;
14209;SDS011;7188;56.070;12.698;2023-05-29T00:34:53;15.30;;;3.20;;
14209;SDS011;7188;56.070;12.698;2023-05-29T00:37:20;18.63;;;2.93;;
14209;SDS011;7188;56.070;12.698;2023-05-29T00:39:47;19.27;;;4.00;;
14209;SDS011;7188;56.070;12.698;2023-05-29T00:42:13;18.57;;;3.17;;
14209;SDS011;7188;56.070;12.698;2023-05-29T00:44:38;17.53;;;3.83;;
14209;SDS011;7188;56.070;12.698;2023-05-29T00:47:04;17.50;;;3.03;;
14209;SDS011;7188;56.070;12.698;2023-05-29T00:49:30;22.03;;;3.43;;
14209;SDS011;7188;56.070;12.698;2023-05-29T00:51:56;19.20;;;3.53;;
14209;SDS011;7188;56.070;12.698;2023-05-29T00:54:26;18.10;;;3.63;;
14209;SDS011;7188;56.070;12.698;2023-05-29T00:56:54;15.13;;;2.60;;
14209;SDS011;7188;56.070;12.698;2023-05-29T00:59:21;17.90;;;3.13;;
14209;SDS011;7188;56.070;12.698;2023-05-29T01:01:51;17.07;;;3.27;;
14209;SDS011;7188;56.070;12.698;2023-05-29T01:04:17;11.93;;;3.23;;
14209;SDS011;7188;56.070;12.698;2023-05-29T01:06:43;17.77;;;3.87;;
14209;SDS011;7188;56.070;12.698;2023-05-29T01:09:09;21.73;;;3.97;;
14209;SDS011;7188;56.070;12.698;2023-05-29T01:17:17;14.87;;;3.10;;
14209;SDS011;7188;56.070;12.698;2023-05-29T01:20:06;22.90;;;4.07;;
14209;SDS011;7188;56.070;12.698;2023-05-29T01:22:54;17.87;;;3.13;;
14209;SDS011;7188;56.070;12.698;2023-05-29T01:25:27;19.10;;;3.43;;
14209;SDS011;7188;56.070;12.698;2023-05-29T01:28:05;16.87;;;3.53;;
14209;SDS011;7188;56.070;12.698;2023-05-29T01:30:35;15.33;;;3.60;;
14209;SDS011;7188;56.070;12.698;2023-05-29T01:33:01;16.87;;;3.47;;
14209;SDS011;7188;56.070;12.698;2023-05-29T01:35:28;15.27;;;3.03;;
14209;SDS011;7188;56.070;12.698;2023-05-29T01:37:54;17.70;;;3.33;;
14209;SDS011;7188;56.070;12.698;2023-05-29T01:40:20;16.67;;;3.20;;
14209;SDS011;7188;56.070;12.698;2023-05-29T01:42:46;19.40;;;3.53;;
14209;SDS011;7188;56.070;12.698;2023-05-29T01:45:13;17.87;;;4.10;;
14209;SDS011;7188;56.070;12.698;2023-05-29T01:47:39;16.17;;;3.00;;
14209;SDS011;7188;56.070;12.698;2023-05-29T01:50:05;14.50;;;3.20;;
14209;SDS011;7188;56.070;12.698;2023-05-29T01:52:31;19.70;;;3.73;;
14209;SDS011;7188;56.070;12.698;2023-05-29T01:54:57;22.13;;;4.33;;
14209;SDS011;7188;56.070;12.698;2023-05-29T01:57:23;13.70;;;2.97;;
14209;SDS011;7188;56.070;12.698;2023-05-29T01:59:50;15.87;;;2.63;;
14209;SDS011;7188;56.070;12.698;2023-05-29T02:02:17;21.13;;;4.73;;
14209;SDS011;7188;56.070;12.698;2023-05-29T02:04:43;18.13;;;3.37;;
14209;SDS011;7188;56.070;12.698;2023-05-29T02:07:09;18.53;;;3.77;;
14209;SDS011;7188;56.070;12.698;2023-05-29T02:09:39;16.07;;;4.07;;
14209;SDS011;7188;56.070;12.698;2023-05-29T02:12:05;14.63;;;2.83;;
14209;SDS011;7188;56.070;12.698;2023-05-29T02:14:32;23.07;;;3.53;;
14209;SDS011;7188;56.070;12.698;2023-05-29T02:16:58;21.57;;;4.10;;
14209;SDS011;7188;56.070;12.698;2023-05-29T02:19:23;21.50;;;3.37;;
14209;SDS011;7188;56.070;12.698;2023-05-29T02:21:50;20.30;;;3.40;;
14209;SDS011;7188;56.070;12.698;2023-05-29T02:24:17;18.50;;;3.50;;
14209;SDS011;7188;56.070;12.698;2023-05-29T02:26:43;19.90;;;3.47;;
14209;SDS011;7188;56.070;12.698;2023-05-29T02:29:08;15.00;;;3.97;;
14209;SDS011;7188;56.070;12.698;2023-05-29T02:31:35;15.43;;;3.13;;
14209;SDS011;7188;56.070;12.698;2023-05-29T02:34:01;15.40;;;3.17;;
14209;SDS011;7188;56.070;12.698;2023-05-29T02:36:27;17.30;;;3.70;;
14209;SDS011;7188;56.070;12.698;2023-05-29T02:38:52;17.43;;;3.40;;
14209;SDS011;7188;56.070;12.698;2023-05-29T02:41:18;19.00;;;3.93;;
14209;SDS011;7188;56.070;12.698;2023-05-29T02:43:44;20.13;;;3.77;;
14209;SDS011;7188;56.070;12.698;2023-05-29T02:46:09;19.63;;;3.67;;
14209;SDS011;7188;56.070;12.698;2023-05-29T02:48:35;17.00;;;3.30;;
14209;SDS011;7188;56.070;12.698;2023-05-29T02:51:01;17.27;;;3.33;;
14209;SDS011;7188;56.070;12.698;2023-05-29T02:53:26;15.83;;;3.17;;
14209;SDS011;7188;56.070;12.698;2023-05-29T02:55:52;19.53;;;3.70;;
14209;SDS011;7188;56.070;12.698;2023-05-29T02:58:21;13.17;;;2.90;;
14209;SDS011;7188;56.070;12.698;2023-05-29T03:00:46;18.57;;;3.60;;
14209;SDS011;7188;56.070;12.698;2023-05-29T03:03:12;18.37;;;3.97;;
14209;SDS011;7188;56.070;12.698;2023-05-29T03:05:38;21.13;;;4.07;;
14209;SDS011;7188;56.070;12.698;2023-05-29T03:08:04;18.63;;;3.80;;
14209;SDS011;7188;56.070;12.698;2023-05-29T03:10:30;16.97;;;3.60;;
14209;SDS011;7188;56.070;12.698;2023-05-29T03:12:55;23.83;;;3.67;;
14209;SDS011;7188;56.070;12.698;2023-05-29T03:15:39;18.80;;;3.07;;
14209;SDS011;7188;56.070;12.698;2023-05-29T03:18:05;17.17;;;3.70;;
14209;SDS011;7188;56.070;12.698;2023-05-29T03:20:30;16.57;;;3.23;;
14209;SDS011;7188;56.070;12.698;2023-05-29T03:22:56;13.57;;;3.23;;
14209;SDS011;7188;56.070;12.698;2023-05-29T03:25:22;17.17;;;3.30;;
14209;SDS011;7188;56.070;12.698;2023-05-29T03:27:47;15.80;;;3.23;;
14209;SDS011;7188;56.070;12.698;2023-05-29T03:30:13;15.37;;;3.97;;
14209;SDS011;7188;56.070;12.698;2023-05-29T03:32:40;15.70;;;3.03;;
14209;SDS011;7188;56.070;12.698;2023-05-29T03:35:06;15.17;;;2.73;;
14209;SDS011;7188;56.070;12.698;2023-05-29T03:37:32;15.50;;;3.73;;
14209;SDS011;7188;56.070;12.698;2023-05-29T03:39:58;12.80;;;2.77;;
14209;SDS011;7188;56.070;12.698;2023-05-29T03:42:24;19.40;;;4.23;;
14209;SDS011;7188;56.070;12.698;2023-05-29T03:44:49;21.87;;;4.33;;
14209;SDS011;7188;56.070;12.698;2023-05-29T03:47:15;13.93;;;3.00;;
14209;SDS011;7188;56.070;12.698;2023-05-29T03:49:40;12.17;;;2.90;;
14209;SDS011;7188;56.070;12.698;2023-05-29T03:52:06;17.30;;;3.53;;
14209;SDS011;7188;56.070;12.698;2023-05-29T03:54:32;15.50;;;3.73;;
14209;SDS011;7188;56.070;12.698;2023-05-29T03:56:58;14.43;;;3.93;;
14209;SDS011;7188;56.070;12.698;2023-05-29T03:59:24;13.83;;;3.80;;
14209;SDS011;7188;56.070;12.698;2023-05-29T04:01:49;13.67;;;2.73;;
14209;SDS011;7188;56.070;12.698;2023-05-29T04:04:15;14.53;;;3.23;;
14209;SDS011;7188;56.070;12.698;2023-05-29T04:06:41;13.33;;;3.07;;
14209;SDS011;7188;56.070;12.698;2023-05-29T04:09:06;14.83;;;3.30;;
14209;SDS011;7188;56.070;12.698;2023-05-29T04:11:33;24.63;;;3.50;;
14209;SDS011;7188;56.070;12.698;2023-05-29T04:14:00;13.03;;;2.97;;
14209;SDS011;7188;56.070;12.698;2023-05-29T04:16:26;15.13;;;4.03;;
14209;SDS011;7188;56.070;12.698;2023-05-29T04:18:53;13.50;;;3.43;;
14209;SDS011;7188;56.070;12.698;2023-05-29T04:21:19;16.87;;;3.20;;
14209;SDS011;7188;56.070;12.698;2023-05-29T04:23:44;21.17;;;4.23;;
14209;SDS011;7188;56.070;12.698;2023-05-29T04:26:10;15.83;;;3.40;;
14209;SDS011;7188;56.070;12.698;2023-05-29T04:28:36;18.37;;;3.37;;
14209;SDS011;7188;56.070;12.698;2023-05-29T04:31:02;18.60;;;4.07;;
14209;SDS011;7188;56.070;12.698;2023-05-29T04:33:28;17.17;;;3.30;;
14209;SDS011;7188;56.070;12.698;2023-05-29T04:35:54;15.33;;;4.00;;
14209;SDS011;7188;56.070;12.698;2023-05-29T04:38:20;11.50;;;2.90;;
14209;SDS011;7188;56.070;12.698;2023-05-29T04:40:50;18.83;;;3.83;;
14209;SDS011;7188;56.070;12.698;2023-05-29T04:43:17;14.37;;;3.83;;
14209;SDS011;7188;56.070;12.698;2023-05-29T04:45:43;13.27;;;3.03;;
14209;SDS011;7188;56.070;12.698;2023-05-29T04:48:09;13.23;;;4.13;;
14209;SDS011;7188;56.070;12.698;2023-05-29T04:50:35;13.13;;;3.10;;
14209;SDS011;7188;56.070;12.698;2023-05-29T04:53:01;19.87;;;3.53;;
14209;SDS011;7188;56.070;12.698;2023-05-29T04:55:27;14.93;;;2.87;;
14209;SDS011;7188;56.070;12.698;2023-05-29T04:57:53;19.43;;;4.10;;
14209;SDS011;7188;56.070;12.698;2023-05-29T05:00:19;15.00;;;2.80;;
14209;SDS011;7188;56.070;12.698;2023-05-29T05:02:44;15.80;;;3.70;;
14209;SDS011;7188;56.070;12.698;2023-05-29T05:05:11;14.40;;;3.40;;
14209;SDS011;7188;56.070;12.698;2023-05-29T05:07:37;13.77;;;3.00;;
14209;SDS011;7188;56.070;12.698;2023-05-29T05:10:03;14.87;;;3.27;;
14209;SDS011;7188;56.070;12.698;2023-05-29T05:12:29;15.73;;;3.90;;
14209;SDS011;7188;56.070;12.698;2023-05-29T05:14:55;16.07;;;3.50;;
14209;SDS011;7188;56.070;12.698;2023-05-29T05:17:21;20.07;;;4.07;;
14209;SDS011;7188;56.070;12.698;2023-05-29T05:19:47;13.60;;;3.20;;
14209;SDS011;7188;56.070;12.698;2023-05-29T05:22:14;17.40;;;2.80;;
14209;SDS011;7188;56.070;12.698;2023-05-29T05:24:41;15.63;;;3.93;;
14209;SDS011;7188;56.070;12.698;2023-05-29T05:27:07;14.97;;;3.37;;
14209;SDS011;7188;56.070;12.698;2023-05-29T05:29:32;15.97;;;3.33;;
14209;SDS011;7188;56.070;12.698;2023-05-29T05:31:58;17.33;;;3.03;;
14209;SDS011;7188;56.070;12.698;2023-05-29T05:34:24;19.40;;;3.83;;
14209;SDS011;7188;56.070;12.698;2023-05-29T05:36:49;16.53;;;3.40;;
14209;SDS011;7188;56.070;12.698;2023-05-29T05:39:15;18.10;;;3.83;;
14209;SDS011;7188;56.070;12.698;2023-05-29T05:41:41;18.43;;;3.53;;
14209;SDS011;7188;56.070;12.698;2023-05-29T05:44:06;18.20;;;3.70;;
14209;SDS011;7188;56.070;12.698;2023-05-29T05:46:32;11.10;;;3.53;;
14209;SDS011;7188;56.070;12.698;2023-05-29T05:48:58;16.33;;;3.13;;
14209;SDS011;7188;56.070;12.698;2023-05-29T05:51:26;15.97;;;3.27;;
14209;SDS011;7188;56.070;12.698;2023-05-29T05:53:52;18.37;;;3.03;;
14209;SDS011;7188;56.070;12.698;2023-05-29T05:56:18;15.17;;;3.37;;
14209;SDS011;7188;56.070;12.698;2023-05-29T05:58:44;11.40;;;3.33;;
14209;SDS011;7188;56.070;12.698;2023-05-29T06:01:10;17.27;;;3.70;;
14209;SDS011;7188;56.070;12.698;2023-05-29T06:03:35;15.17;;;3.80;;
14209;SDS011;7188;56.070;12.698;2023-05-29T06:06:03;13.47;;;2.77;;
14209;SDS011;7188;56.070;12.698;2023-05-29T06:08:29;18.37;;;3.70;;
14209;SDS011;7188;56.070;12.698;2023-05-29T06:10:55;17.63;;;3.47;;
14209;SDS011;7188;56.070;12.698;2023-05-29T06:13:21;18.33;;;3.57;;
14209;SDS011;7188;56.070;12.698;2023-05-29T06:15:48;11.90;;;2.77;;
14209;SDS011;7188;56.070;12.698;2023-05-29T06:18:13;17.87;;;3.57;;
14209;SDS011;7188;56.070;12.698;2023-05-29T06:20:39;15.50;;;3.10;;
14209;SDS011;7188;56.070;12.698;2023-05-29T06:23:06;14.67;;;3.10;;
14209;SDS011;7188;56.070;12.698;2023-05-29T06:25:31;11.07;;;2.40;;
14209;SDS011;7188;56.070;12.698;2023-05-29T06:28:00;12.93;;;2.57;;
14209;SDS011;7188;56.070;12.698;2023-05-29T06:30:26;15.83;;;3.47;;
14209;SDS011;7188;56.070;12.698;2023-05-29T06:32:52;16.67;;;2.73;;
14209;SDS011;7188;56.070;12.698;2023-05-29T06:35:18;20.83;;;3.20;;
14209;SDS011;7188;56.070;12.698;2023-05-29T06:37:44;15.47;;;3.60;;
14209;SDS011;7188;56.070;12.698;2023-05-29T06:40:11;15.23;;;3.00;;
14209;SDS011;7188;56.070;12.698;2023-05-29T06:42:40;14.57;;;3.80;;
14209;SDS011;7188;56.070;12.698;2023-05-29T06:45:12;9.23;;;2.63;;
14209;SDS011;7188;56.070;12.698;2023-05-29T06:47:41;20.20;;;3.23;;
14209;SDS011;7188;56.070;12.698;2023-05-29T06:50:07;8.43;;;2.63;;
14209;SDS011;7188;56.070;12.698;2023-05-29T06:52:33;11.20;;;2.80;;
14209;SDS011;7188;56.070;12.698;2023-05-29T06:54:59;9.20;;;1.87;;
14209;SDS011;7188;56.070;12.698;2023-05-29T06:57:26;13.30;;;2.10;;
14209;SDS011;7188;56.070;12.698;2023-05-29T06:59:52;8.43;;;1.73;;
14209;SDS011;7188;56.070;12.698;2023-05-29T07:02:17;8.17;;;1.90;;
14209;SDS011;7188;56.070;12.698;2023-05-29T07:04:43;8.97;;;2.07;;
14209;SDS011;7188;56.070;12.698;2023-05-29T07:07:08;8.70;;;1.50;;
14209;SDS011;7188;56.070;12.698;2023-05-29T07:09:34;5.70;;;1.30;;
14209;SDS011;7188;56.070;12.698;2023-05-29T07:12:00;6.80;;;1.80;;
14209;SDS011;7188;56.070;12.698;2023-05-29T07:14:25;3.37;;;1.17;;
14209;SDS011;7188;56.070;12.698;2023-05-29T07:16:51;3.40;;;1.33;;
14209;SDS011;7188;56.070;12.698;2023-05-29T07:19:17;6.80;;;1.13;;
14209;SDS011;7188;56.070;12.698;2023-05-29T07:21:42;6.60;;;0.90;;
14209;SDS011;7188;56.070;12.698;2023-05-29T07:24:08;4.73;;;1.07;;
14209;SDS011;7188;56.070;12.698;2023-05-29T07:26:34;2.63;;;0.83;;
14209;SDS011;7188;56.070;12.698;2023-05-29T07:28:59;4.53;;;0.80;;
14209;SDS011;7188;56.070;12.698;2023-05-29T07:31:25;2.47;;;0.53;;
14209;SDS011;7188;56.070;12.698;2023-05-29T07:33:51;5.90;;;1.20;;
14209;SDS011;7188;56.070;12.698;2023-05-29T07:36:16;5.37;;;0.87;;
14209;SDS011;7188;56.070;12.698;2023-05-29T07:38:43;5.10;;;0.90;;
14209;SDS011;7188;56.070;12.698;2023-05-29T07:41:09;4.63;;;1.13;;
14209;SDS011;7188;56.070;12.698;2023-05-29T07:43:34;8.40;;;0.70;;
14209;SDS011;7188;56.070;12.698;2023-05-29T07:46:00;2.27;;;0.60;;
14209;SDS011;7188;56.070;12.698;2023-05-29T07:48:26;3.80;;;0.80;;
14209;SDS011;7188;56.070;12.698;2023-05-29T07:50:52;4.53;;;0.80;;
14209;SDS011;7188;56.070;12.698;2023-05-29T07:53:18;1.63;;;0.63;;
14209;SDS011;7188;56.070;12.698;2023-05-29T07:55:44;4.57;;;0.97;;
14209;SDS011;7188;56.070;12.698;2023-05-29T07:58:10;4.57;;;0.67;;
14209;SDS011;7188;56.070;12.698;2023-05-29T08:00:36;8.30;;;1.50;;
14209;SDS011;7188;56.070;12.698;2023-05-29T08:03:03;3.13;;;0.70;;
14209;SDS011;7188;56.070;12.698;2023-05-29T08:05:29;2.47;;;0.80;;
14209;SDS011;7188;56.070;12.698;2023-05-29T08:07:56;3.27;;;0.50;;
14209;SDS011;7188;56.070;12.698;2023-05-29T08:10:23;1.20;;;0.50;;
14209;SDS011;7188;56.070;12.698;2023-05-29T08:12:49;2.90;;;0.43;;
14209;SDS011;7188;56.070;12.698;2023-05-29T08:15:17;1.13;;;0.50;;
14209;SDS011;7188;56.070;12.698;2023-05-29T08:17:43;3.63;;;0.57;;
14209;SDS011;7188;56.070;12.698;2023-05-29T08:20:09;2.20;;;0.80;;
14209;SDS011;7188;56.070;12.698;2023-05-29T08:22:35;2.30;;;0.63;;
14209;SDS011;7188;56.070;12.698;2023-05-29T08:25:01;1.03;;;0.50;;
14209;SDS011;7188;56.070;12.698;2023-05-29T08:27:26;1.60;;;0.47;;
14209;SDS011;7188;56.070;12.698;2023-05-29T08:29:52;2.97;;;0.63;;
14209;SDS011;7188;56.070;12.698;2023-05-29T08:32:19;1.63;;;0.60;;
14209;SDS011;7188;56.070;12.698;2023-05-29T08:34:46;2.50;;;0.60;;
14209;SDS011;7188;56.070;12.698;2023-05-29T08:37:11;3.77;;;0.60;;
14209;SDS011;7188;56.070;12.698;2023-05-29T08:39:38;2.83;;;0.43;;
14209;SDS011;7188;56.070;12.698;2023-05-29T08:42:04;5.10;;;0.67;;
14209;SDS011;7188;56.070;12.698;2023-05-29T08:44:32;2.60;;;0.70;;
14209;SDS011;7188;56.070;12.698;2023-05-29T08:47:03;5.17;;;0.93;;
14209;SDS011;7188;56.070;12.698;2023-05-29T08:49:41;2.37;;;0.63;;
14209;SDS011;7188;56.070;12.698;2023-05-29T08:52:15;2.97;;;0.60;;
14209;SDS011;7188;56.070;12.698;2023-05-29T08:54:43;3.80;;;0.50;;
14209;SDS011;7188;56.070;12.698;2023-05-29T08:57:13;2.83;;;0.53;;
14209;SDS011;7188;56.070;12.698;2023-05-29T08:59:42;4.13;;;0.77;;
14209;SDS011;7188;56.070;12.698;2023-05-29T09:02:09;4.13;;;0.40;;
14209;SDS011;7188;56.070;12.698;2023-05-29T09:04:36;1.17;;;0.40;;
14209;SDS011;7188;56.070;12.698;2023-05-29T09:07:03;3.97;;;0.60;;
14209;SDS011;7188;56.070;12.698;2023-05-29T09:09:32;3.00;;;0.80;;
14209;SDS011;7188;56.070;12.698;2023-05-29T09:11:57;3.07;;;0.50;;
14209;SDS011;7188;56.070;12.698;2023-05-29T09:14:37;2.37;;;0.60;;
14209;SDS011;7188;56.070;12.698;2023-05-29T09:17:06;2.67;;;0.73;;
14209;SDS011;7188;56.070;12.698;2023-05-29T09:19:33;4.60;;;0.93;;
14209;SDS011;7188;56.070;12.698;2023-05-29T09:22:01;0.97;;;0.50;;
14209;SDS011;7188;56.070;12.698;2023-05-29T09:24:33;3.70;;;0.60;;
14209;SDS011;7188;56.070;12.698;2023-05-29T09:27:00;4.73;;;0.60;;
14209;SDS011;7188;56.070;12.698;2023-05-29T09:29:30;5.03;;;0.67;;
14209;SDS011;7188;56.070;12.698;2023-05-29T09:31:58;2.47;;;0.70;;
14209;SDS011;7188;56.070;12.698;2023-05-29T09:34:24;1.97;;;0.50;;
14209;SDS011;7188;56.070;12.698;2023-05-29T09:36:53;1.93;;;0.40;;
14209;SDS011;7188;56.070;12.698;2023-05-29T09:39:33;2.07;;;0.67;;
14209;SDS011;7188;56.070;12.698;2023-05-29T09:42:19;4.17;;;0.70;;
14209;SDS011;7188;56.070;12.698;2023-05-29T09:44:48;2.00;;;0.60;;
14209;SDS011;7188;56.070;12.698;2023-05-29T09:47:18;1.57;;;0.53;;
14209;SDS011;7188;56.070;12.698;2023-05-29T09:49:45;1.63;;;0.53;;
14209;SDS011;7188;56.070;12.698;2023-05-29T09:52:12;1.47;;;0.50;;
14209;SDS011;7188;56.070;12.698;2023-05-29T09:54:42;4.40;;;0.63;;
14209;SDS011;7188;56.070;12.698;2023-05-29T09:57:12;2.13;;;0.40;;
14209;SDS011;7188;56.070;12.698;2023-05-29T09:59:40;1.10;;;0.53;;
14209;SDS011;7188;56.070;12.698;2023-05-29T10:02:10;3.00;;;0.50;;
14209;SDS011;7188;56.070;12.698;2023-05-29T10:04:38;2.27;;;0.50;;
14209;SDS011;7188;56.070;12.698;2023-05-29T10:07:43;2.63;;;0.63;;
14209;SDS011;7188;56.070;12.698;2023-05-29T10:10:08;1.57;;;0.50;;
14209;SDS011;7188;56.070;12.698;2023-05-29T10:12:36;1.90;;;0.60;;
14209;SDS011;7188;56.070;12.698;2023-05-29T10:15:05;0.43;;;0.30;;
14209;SDS011;7188;56.070;12.698;2023-05-29T10:17:36;0.90;;;0.30;;
14209;SDS011;7188;56.070;12.698;2023-05-29T10:20:04;3.50;;;0.50;;
14209;SDS011;7188;56.070;12.698;2023-05-29T10:22:32;4.50;;;0.50;;
14209;SDS011;7188;56.070;12.698;2023-05-29T10:25:01;1.13;;;0.47;;
14209;SDS011;7188;56.070;12.698;2023-05-29T10:27:28;2.50;;;0.40;;
14209;SDS011;7188;56.070;12.698;2023-05-29T10:30:02;1.47;;;0.50;;
14209;SDS011;7188;56.070;12.698;2023-05-29T10:38:31;0.77;;;0.40;;
14209;SDS011;7188;56.070;12.698;2023-05-29T10:41:25;2.43;;;0.43;;
14209;SDS011;7188;56.070;12.698;2023-05-29T10:43:51;2.20;;;0.50;;
14209;SDS011;7188;56.070;12.698;2023-05-29T10:46:20;1.37;;;0.60;;
14209;SDS011;7188;56.070;12.698;2023-05-29T10:48:51;1.83;;;0.40;;
14209;SDS011;7188;56.070;12.698;2023-05-29T10:51:26;1.57;;;0.70;;
14209;SDS011;7188;56.070;12.698;2023-05-29T10:53:52;3.43;;;0.47;;
14209;SDS011;7188;56.070;12.698;2023-05-29T10:56:22;3.67;;;0.60;;
14209;SDS011;7188;56.070;12.698;2023-05-29T10:58:53;1.63;;;0.77;;
14209;SDS011;7188;56.070;12.698;2023-05-29T11:01:21;2.03;;;0.73;;
14209;SDS011;7188;56.070;12.698;2023-05-29T11:03:50;1.23;;;0.60;;
14209;SDS011;7188;56.070;12.698;2023-05-29T11:06:18;0.87;;;0.50;;
14209;SDS011;7188;56.070;12.698;2023-05-29T11:08:55;3.53;;;0.77;;
14209;SDS011;7188;56.070;12.698;2023-05-29T11:11:29;3.03;;;0.60;;
14209;SDS011;7188;56.070;12.698;2023-05-29T11:13:57;1.60;;;0.43;;
14209;SDS011;7188;56.070;12.698;2023-05-29T11:18:55;2.57;;;0.33;;
14209;SDS011;7188;56.070;12.698;2023-05-29T11:21:34;2.70;;;0.60;;
14209;SDS011;7188;56.070;12.698;2023-05-29T11:24:25;0.60;;;0.30;;
14209;SDS011;7188;56.070;12.698;2023-05-29T11:26:52;2.70;;;0.40;;
14209;SDS011;7188;56.070;12.698;2023-05-29T11:29:28;1.60;;;0.67;;
14209;SDS011;7188;56.070;12.698;2023-05-29T11:32:14;2.03;;;0.50;;
14209;SDS011;7188;56.070;12.698;2023-05-29T11:34:42;1.27;;;0.60;;
14209;SDS011;7188;56.070;12.698;2023-05-29T11:37:11;3.57;;;0.60;;
14209;SDS011;7188;56.070;12.698;2023-05-29T11:39:37;3.00;;;0.70;;
14209;SDS011;7188;56.070;12.698;2023-05-29T11:42:03;7.10;;;0.80;;
14209;SDS011;7188;56.070;12.698;2023-05-29T11:44:30;1.27;;;0.47;;
14209;SDS011;7188;56.070;12.698;2023-05-29T11:47:02;2.30;;;0.50;;
14209;SDS011;7188;56.070;12.698;2023-05-29T11:49:33;4.47;;;0.70;;
14209;SDS011;7188;56.070;12.698;2023-05-29T11:52:07;1.37;;;0.50;;
14209;SDS011;7188;56.070;12.698;2023-05-29T11:54:39;2.10;;;0.40;;
14209;SDS011;7188;56.070;12.698;2023-05-29T11:57:11;0.63;;;0.40;;
14209;SDS011;7188;56.070;12.698;2023-05-29T11:59:45;4.30;;;0.80;;
14209;SDS011;7188;56.070;12.698;2023-05-29T12:02:12;1.27;;;0.60;;
14209;SDS011;7188;56.070;12.698;2023-05-29T12:04:37;1.93;;;0.50;;
14209;SDS011;7188;56.070;12.698;2023-05-29T12:07:16;3.00;;;0.70;;
14209;SDS011;7188;56.070;12.698;2023-05-29T12:09:43;2.47;;;0.60;;
14209;SDS011;7188;56.070;12.698;2023-05-29T12:12:08;2.90;;;0.50;;
14209;SDS011;7188;56.070;12.698;2023-05-29T12:14:34;1.13;;;0.70;;
14209;SDS011;7188;56.070;12.698;2023-05-29T12:16:59;2.17;;;0.50;;
14209;SDS011;7188;56.070;12.698;2023-05-29T12:19:25;3.80;;;0.60;;
14209;SDS011;7188;56.070;12.698;2023-05-29T12:21:51;1.93;;;0.50;;
14209;SDS011;7188;56.070;12.698;2023-05-29T12:24:20;4.37;;;0.77;;
14209;SDS011;7188;56.070;12.698;2023-05-29T12:26:46;1.00;;;0.60;;
14209;SDS011;7188;56.070;12.698;2023-05-29T12:29:16;4.13;;;0.87;;
14209;SDS011;7188;56.070;12.698;2023-05-29T12:31:41;2.23;;;0.80;;
14209;SDS011;7188;56.070;12.698;2023-05-29T12:34:08;2.93;;;0.63;;
14209;SDS011;7188;56.070;12.698;2023-05-29T12:36:35;1.80;;;0.50;;
14209;SDS011;7188;56.070;12.698;2023-05-29T12:39:05;3.13;;;0.90;;
14209;SDS011;7188;56.070;12.698;2023-05-29T12:41:36;2.40;;;0.83;;
14209;SDS011;7188;56.070;12.698;2023-05-29T12:44:03;3.17;;;0.90;;
14209;SDS011;7188;56.070;12.698;2023-05-29T12:46:37;7.90;;;0.70;;
14209;SDS011;7188;56.070;12.698;2023-05-29T12:49:17;2.60;;;0.60;;
14209;SDS011;7188;56.070;12.698;2023-05-29T12:51:48;4.30;;;0.87;;
14209;SDS011;7188;56.070;12.698;2023-05-29T12:54:14;5.30;;;0.80;;
14209;SDS011;7188;56.070;12.698;2023-05-29T12:56:41;2.27;;;0.77;;
14209;SDS011;7188;56.070;12.698;2023-05-29T12:59:07;5.03;;;0.90;;
14209;SDS011;7188;56.070;12.698;2023-05-29T13:01:33;5.00;;;0.87;;
14209;SDS011;7188;56.070;12.698;2023-05-29T13:03:59;3.73;;;0.80;;
14209;SDS011;7188;56.070;12.698;2023-05-29T13:06:24;2.97;;;0.90;;
14209;SDS011;7188;56.070;12.698;2023-05-29T13:08:51;1.67;;;0.67;;
14209;SDS011;7188;56.070;12.698;2023-05-29T13:11:17;3.47;;;0.80;;
14209;SDS011;7188;56.070;12.698;2023-05-29T13:13:43;2.53;;;0.93;;
14209;SDS011;7188;56.070;12.698;2023-05-29T13:16:09;3.90;;;0.93;;
14209;SDS011;7188;56.070;12.698;2023-05-29T13:18:34;3.80;;;0.80;;
14209;SDS011;7188;56.070;12.698;2023-05-29T13:21:00;1.67;;;0.80;;
14209;SDS011;7188;56.070;12.698;2023-05-29T13:23:27;2.17;;;0.70;;
14209;SDS011;7188;56.070;12.698;2023-05-29T13:25:52;4.53;;;0.67;;
14209;SDS011;7188;56.070;12.698;2023-05-29T13:28:18;1.80;;;0.70;;
14209;SDS011;7188;56.070;12.698;2023-05-29T13:30:44;4.90;;;0.70;;
14209;SDS011;7188;56.070;12.698;2023-05-29T13:33:09;2.40;;;0.80;;
14209;SDS011;7188;56.070;12.698;2023-05-29T13:35:35;1.50;;;0.60;;
14209;SDS011;7188;56.070;12.698;2023-05-29T13:38:01;3.43;;;0.93;;
14209;SDS011;7188;56.070;12.698;2023-05-29T13:40:27;7.37;;;1.27;;
14209;SDS011;7188;56.070;12.698;2023-05-29T13:42:53;2.70;;;0.83;;
14209;SDS011;7188;56.070;12.698;2023-05-29T13:45:20;2.47;;;0.63;;
14209;SDS011;7188;56.070;12.698;2023-05-29T13:47:45;2.33;;;0.90;;
14209;SDS011;7188;56.070;12.698;2023-05-29T13:50:11;4.50;;;0.90;;
14209;SDS011;7188;56.070;12.698;2023-05-29T13:52:37;3.03;;;0.93;;
14209;SDS011;7188;56.070;12.698;2023-05-29T13:55:03;4.80;;;0.90;;
14209;SDS011;7188;56.070;12.698;2023-05-29T13:57:36;1.93;;;0.87;;
14209;SDS011;7188;56.070;12.698;2023-05-29T14:00:03;6.30;;;0.97;;
14209;SDS011;7188;56.070;12.698;2023-05-29T14:02:29;1.83;;;0.77;;
14209;SDS011;7188;56.070;12.698;2023-05-29T14:04:55;2.57;;;0.87;;
14209;SDS011;7188;56.070;12.698;2023-05-29T14:07:21;3.67;;;1.23;;
14209;SDS011;7188;56.070;12.698;2023-05-29T14:09:46;2.80;;;0.80;;
14209;SDS011;7188;56.070;12.698;2023-05-29T14:12:12;3.10;;;0.93;;
14209;SDS011;7188;56.070;12.698;2023-05-29T14:14:37;3.10;;;1.50;;
14209;SDS011;7188;56.070;12.698;2023-05-29T14:17:03;4.00;;;0.80;;
14209;SDS011;7188;56.070;12.698;2023-05-29T14:19:30;2.33;;;0.80;;
14209;SDS011;7188;56.070;12.698;2023-05-29T14:21:56;4.33;;;0.63;;
14209;SDS011;7188;56.070;12.698;2023-05-29T14:24:24;2.50;;;0.83;;
14209;SDS011;7188;56.070;12.698;2023-05-29T14:26:50;1.87;;;0.90;;
14209;SDS011;7188;56.070;12.698;2023-05-29T14:29:16;2.53;;;0.83;;
14209;SDS011;7188;56.070;12.698;2023-05-29T14:31:42;4.77;;;0.73;;
14209;SDS011;7188;56.070;12.698;2023-05-29T14:34:08;3.13;;;0.73;;
14209;SDS011;7188;56.070;12.698;2023-05-29T14:36:36;2.80;;;0.90;;
14209;SDS011;7188;56.070;12.698;2023-05-29T14:39:02;5.13;;;0.90;;
14209;SDS011;7188;56.070;12.698;2023-05-29T14:41:28;3.17;;;0.80;;
14209;SDS011;7188;56.070;12.698;2023-05-29T14:43:54;3.23;;;0.63;;
14209;SDS011;7188;56.070;12.698;2023-05-29T14:46:23;5.57;;;1.00;;
14209;SDS011;7188;56.070;12.698;2023-05-29T14:48:53;4.20;;;1.10;;
14209;SDS011;7188;56.070;12.698;2023-05-29T14:51:20;2.70;;;0.90;;
14209;SDS011;7188;56.070;12.698;2023-05-29T14:53:46;3.83;;;0.90;;
14209;SDS011;7188;56.070;12.698;2023-05-29T14:56:11;4.43;;;1.27;;